sensor_id;sensor_type;location;lat;lon;timestamp;pressure;altitude;pressure_sealevel;temperature
73685;BMP280;61985;51.070;14.064;2023-04-03T00:00:10;99609.16;;;1.30
73685;BMP280;61985;51.070;14.064;2023-04-03T00:06:07;99622.09;;;1.19
73685;BMP280;61985;51.070;14.064;2023-04-03T00:08:52;99613.56;;;1.14
73685;BMP280;61985;51.070;14.064;2023-04-03T00:11:31;99615.09;;;1.15
73685;BMP280;61985;51.070;14.064;2023-04-03T00:14:20;99625.72;;;1.15
73685;BMP280;61985;51.070;14.064;2023-04-03T00:17:02;99620.63;;;1.10
73685;BMP280;61985;51.070;14.064;2023-04-03T00:19:43;99628.25;;;1.11
73685;BMP280;61985;51.070;14.064;2023-04-03T00:22:26;99631.78;;;1.03
73685;BMP280;61985;51.070;14.064;2023-04-03T00:25:19;99630.34;;;1.05
73685;BMP280;61985;51.070;14.064;2023-04-03T00:28:03;99639.41;;;1.04
73685;BMP280;61985;51.070;14.064;2023-04-03T00:30:41;99629.25;;;1.06
73685;BMP280;61985;51.070;14.064;2023-04-03T00:33:34;99646.06;;;1.11
73685;BMP280;61985;51.070;14.064;2023-04-03T00:40:05;99646.63;;;1.04
73685;BMP280;61985;51.070;14.064;2023-04-03T00:42:38;99648.94;;;1.05
73685;BMP280;61985;51.070;14.064;2023-04-03T00:48:45;99645.06;;;1.03
73685;BMP280;61985;51.070;14.064;2023-04-03T00:51:32;99647.47;;;0.96
73685;BMP280;61985;51.070;14.064;2023-04-03T00:57:14;99645.13;;;0.94
73685;BMP280;61985;51.070;14.064;2023-04-03T01:00:24;99636.81;;;0.83
73685;BMP280;61985;51.070;14.064;2023-04-03T01:03:07;99641.69;;;0.81
73685;BMP280;61985;51.070;14.064;2023-04-03T01:06:13;99644.91;;;0.87
73685;BMP280;61985;51.070;14.064;2023-04-03T01:08:44;99655.38;;;0.83
73685;BMP280;61985;51.070;14.064;2023-04-03T01:11:09;99641.56;;;0.78
73685;BMP280;61985;51.070;14.064;2023-04-03T01:13:35;99646.41;;;0.76
73685;BMP280;61985;51.070;14.064;2023-04-03T01:16:02;99651.59;;;0.72
73685;BMP280;61985;51.070;14.064;2023-04-03T01:18:28;99649.38;;;0.74
73685;BMP280;61985;51.070;14.064;2023-04-03T01:23:40;99654.97;;;0.60
73685;BMP280;61985;51.070;14.064;2023-04-03T01:26:07;99653.84;;;0.49
73685;BMP280;61985;51.070;14.064;2023-04-03T01:28:35;99663.16;;;0.55
73685;BMP280;61985;51.070;14.064;2023-04-03T01:33:45;99665.47;;;0.35
73685;BMP280;61985;51.070;14.064;2023-04-03T01:36:46;99659.84;;;0.37
73685;BMP280;61985;51.070;14.064;2023-04-03T01:39:06;99661.50;;;0.29
73685;BMP280;61985;51.070;14.064;2023-04-03T01:41:31;99662.94;;;0.27
73685;BMP280;61985;51.070;14.064;2023-04-03T01:43:57;99672.28;;;0.24
73685;BMP280;61985;51.070;14.064;2023-04-03T01:46:22;99666.28;;;0.15
73685;BMP280;61985;51.070;14.064;2023-04-03T01:48:49;99668.16;;;0.14
73685;BMP280;61985;51.070;14.064;2023-04-03T01:51:14;99674.44;;;0.10
73685;BMP280;61985;51.070;14.064;2023-04-03T01:53:40;99670.22;;;0.09
73685;BMP280;61985;51.070;14.064;2023-04-03T01:56:06;99671.06;;;0.01
73685;BMP280;61985;51.070;14.064;2023-04-03T01:58:52;99674.34;;;-0.03
73685;BMP280;61985;51.070;14.064;2023-04-03T02:01:38;99676.41;;;-0.08
73685;BMP280;61985;51.070;14.064;2023-04-03T02:04:53;99683.13;;;-0.11
73685;BMP280;61985;51.070;14.064;2023-04-03T06:27:24;99833.63;;;-0.86
73685;BMP280;61985;51.070;14.064;2023-04-03T06:29:50;99839.50;;;-0.81
73685;BMP280;61985;51.070;14.064;2023-04-03T06:32:16;99839.97;;;-0.96
73685;BMP280;61985;51.070;14.064;2023-04-03T06:34:41;99838.88;;;-0.78
73685;BMP280;61985;51.070;14.064;2023-04-03T06:37:13;99852.75;;;-0.72
73685;BMP280;61985;51.070;14.064;2023-04-03T06:39:39;99835.78;;;-0.80
73685;BMP280;61985;51.070;14.064;2023-04-03T06:42:05;99846.22;;;-0.75
73685;BMP280;61985;51.070;14.064;2023-04-03T06:44:30;99842.00;;;-0.67
73685;BMP280;61985;51.070;14.064;2023-04-03T06:46:56;99849.94;;;-0.67
73685;BMP280;61985;51.070;14.064;2023-04-03T06:49:21;99854.31;;;-0.62
73685;BMP280;61985;51.070;14.064;2023-04-03T06:51:46;99854.78;;;-0.69
73685;BMP280;61985;51.070;14.064;2023-04-03T06:54:12;99857.59;;;-0.74
73685;BMP280;61985;51.070;14.064;2023-04-03T06:56:37;99858.66;;;-0.75
73685;BMP280;61985;51.070;14.064;2023-04-03T06:59:02;99864.44;;;-0.82
73685;BMP280;61985;51.070;14.064;2023-04-03T07:01:29;99865.22;;;-0.73
73685;BMP280;61985;51.070;14.064;2023-04-03T07:03:54;99877.19;;;-0.58
73685;BMP280;61985;51.070;14.064;2023-04-03T07:06:20;99872.06;;;-0.72
73685;BMP280;61985;51.070;14.064;2023-04-03T07:08:46;99877.22;;;-0.66
73685;BMP280;61985;51.070;14.064;2023-04-03T07:11:13;99879.41;;;-0.77
73685;BMP280;61985;51.070;14.064;2023-04-03T07:13:39;99880.19;;;-0.68
73685;BMP280;61985;51.070;14.064;2023-04-03T07:16:05;99875.81;;;-0.73
73685;BMP280;61985;51.070;14.064;2023-04-03T07:18:32;99891.38;;;-0.54
73685;BMP280;61985;51.070;14.064;2023-04-03T07:20:57;99883.91;;;-0.60
73685;BMP280;61985;51.070;14.064;2023-04-03T07:23:23;99886.69;;;-0.65
73685;BMP280;61985;51.070;14.064;2023-04-03T07:25:50;99887.47;;;-0.74
73685;BMP280;61985;51.070;14.064;2023-04-03T07:28:17;99891.53;;;-0.67
73685;BMP280;61985;51.070;14.064;2023-04-03T07:30:48;99891.69;;;-0.46
73685;BMP280;61985;51.070;14.064;2023-04-03T07:33:15;99895.44;;;-0.39
73685;BMP280;61985;51.070;14.064;2023-04-03T07:35:41;99901.97;;;-0.27
73685;BMP280;61985;51.070;14.064;2023-04-03T07:38:07;99902.13;;;-0.24
73685;BMP280;61985;51.070;14.064;2023-04-03T07:40:33;99901.03;;;-0.40
73685;BMP280;61985;51.070;14.064;2023-04-03T07:42:58;99899.50;;;-0.32
73685;BMP280;61985;51.070;14.064;2023-04-03T07:45:24;99905.09;;;-0.34
73685;BMP280;61985;51.070;14.064;2023-04-03T07:47:50;99906.78;;;-0.21
73685;BMP280;61985;51.070;14.064;2023-04-03T07:50:16;99899.94;;;-0.13
73685;BMP280;61985;51.070;14.064;2023-04-03T07:52:43;99902.38;;;0.01
73685;BMP280;61985;51.070;14.064;2023-04-03T07:55:08;99906.28;;;0.04
73685;BMP280;61985;51.070;14.064;2023-04-03T07:57:34;99905.03;;;0.10
73685;BMP280;61985;51.070;14.064;2023-04-03T08:00:00;99909.41;;;0.06
73685;BMP280;61985;51.070;14.064;2023-04-03T08:02:25;99909.91;;;-0.10
73685;BMP280;61985;51.070;14.064;2023-04-03T08:04:51;99918.47;;;-0.13
73685;BMP280;61985;51.070;14.064;2023-04-03T08:07:17;99910.38;;;-0.16
73685;BMP280;61985;51.070;14.064;2023-04-03T08:09:42;99901.03;;;-0.14
73685;BMP280;61985;51.070;14.064;2023-04-03T08:12:07;99910.16;;;0.06
73685;BMP280;61985;51.070;14.064;2023-04-03T08:14:33;99910.91;;;0.15
73685;BMP280;61985;51.070;14.064;2023-04-03T08:17:01;99906.91;;;0.01
73685;BMP280;61985;51.070;14.064;2023-04-03T08:19:29;99912.19;;;0.09
73685;BMP280;61985;51.070;14.064;2023-04-03T08:21:54;99907.16;;;0.25
73685;BMP280;61985;51.070;14.064;2023-04-03T08:24:20;99904.97;;;0.27
73685;BMP280;61985;51.070;14.064;2023-04-03T08:26:45;99909.44;;;0.35
73685;BMP280;61985;51.070;14.064;2023-04-03T08:29:11;99913.56;;;0.54
73685;BMP280;61985;51.070;14.064;2023-04-03T08:31:36;99904.59;;;0.76
73685;BMP280;61985;51.070;14.064;2023-04-03T08:34:02;99914.78;;;0.95
73685;BMP280;61985;51.070;14.064;2023-04-03T08:36:29;99905.63;;;0.84
73685;BMP280;61985;51.070;14.064;2023-04-03T08:38:56;99908.97;;;0.72
73685;BMP280;61985;51.070;14.064;2023-04-03T08:41:29;99904.53;;;0.85
73685;BMP280;61985;51.070;14.064;2023-04-03T08:44:08;99910.38;;;0.99
73685;BMP280;61985;51.070;14.064;2023-04-03T08:46:46;99918.50;;;1.24
73685;BMP280;61985;51.070;14.064;2023-04-03T08:49:21;99908.59;;;1.45
73685;BMP280;61985;51.070;14.064;2023-04-03T08:51:49;99916.84;;;1.53
73685;BMP280;61985;51.070;14.064;2023-04-03T08:54:29;99908.38;;;1.38
73685;BMP280;61985;51.070;14.064;2023-04-03T08:56:56;99917.22;;;1.42
73685;BMP280;61985;51.070;14.064;2023-04-03T08:59:29;99918.25;;;1.50
73685;BMP280;61985;51.070;14.064;2023-04-03T09:01:59;99905.06;;;1.75
73685;BMP280;61985;51.070;14.064;2023-04-03T09:04:28;99910.22;;;1.92
73685;BMP280;61985;51.070;14.064;2023-04-03T09:07:09;99919.06;;;1.84
73685;BMP280;61985;51.070;14.064;2023-04-03T09:09:41;99917.06;;;1.81
73685;BMP280;61985;51.070;14.064;2023-04-03T09:12:31;99915.63;;;1.84
73685;BMP280;61985;51.070;14.064;2023-04-03T09:22:33;99919.81;;;1.72
73685;BMP280;61985;51.070;14.064;2023-04-03T09:25:23;99912.66;;;1.64
73685;BMP280;61985;51.070;14.064;2023-04-03T09:27:50;99909.63;;;1.74
73685;BMP280;61985;51.070;14.064;2023-04-03T09:30:21;99906.31;;;1.77
73685;BMP280;61985;51.070;14.064;2023-04-03T09:32:49;99911.22;;;1.88
73685;BMP280;61985;51.070;14.064;2023-04-03T09:35:26;99904.59;;;2.06
73685;BMP280;61985;51.070;14.064;2023-04-03T09:38:00;99904.34;;;1.99
73685;BMP280;61985;51.070;14.064;2023-04-03T09:43:00;99900.91;;;1.86
73685;BMP280;61985;51.070;14.064;2023-04-03T09:45:34;99897.34;;;1.94
73685;BMP280;61985;51.070;14.064;2023-04-03T09:48:17;99899.28;;;2.06
73685;BMP280;61985;51.070;14.064;2023-04-03T09:55:50;99902.72;;;2.44
73685;BMP280;61985;51.070;14.064;2023-04-03T09:58:43;99898.06;;;2.65
73685;BMP280;61985;51.070;14.064;2023-04-03T10:06:41;99890.81;;;2.90
73685;BMP280;61985;51.070;14.064;2023-04-03T10:09:26;99887.84;;;2.67
73685;BMP280;61985;51.070;14.064;2023-04-03T10:12:11;99886.81;;;2.84
73685;BMP280;61985;51.070;14.064;2023-04-03T10:14:53;99887.38;;;2.90
73685;BMP280;61985;51.070;14.064;2023-04-03T10:17:34;99879.44;;;3.06
73685;BMP280;61985;51.070;14.064;2023-04-03T10:20:21;99878.22;;;3.03
73685;BMP280;61985;51.070;14.064;2023-04-03T10:28:48;99882.94;;;2.69
73685;BMP280;61985;51.070;14.064;2023-04-03T10:34:35;99882.69;;;2.99
73685;BMP280;61985;51.070;14.064;2023-04-03T10:39:59;99881.69;;;3.92
73685;BMP280;61985;51.070;14.064;2023-04-03T10:43:06;99881.34;;;3.78
73685;BMP280;61985;51.070;14.064;2023-04-03T10:48:26;99879.41;;;3.78
73685;BMP280;61985;51.070;14.064;2023-04-03T10:57:01;99870.47;;;4.02
73685;BMP280;61985;51.070;14.064;2023-04-03T11:01:55;99864.09;;;4.23
73685;BMP280;61985;51.070;14.064;2023-04-03T11:04:24;99870.41;;;3.83
73685;BMP280;61985;51.070;14.064;2023-04-03T11:07:03;99878.97;;;3.60
73685;BMP280;61985;51.070;14.064;2023-04-03T17:08:05;99817.22;;;1.59
73685;BMP280;61985;51.070;14.064;2023-04-03T17:10:30;99817.34;;;1.62
73685;BMP280;61985;51.070;14.064;2023-04-03T17:12:56;99815.47;;;1.63
73685;BMP280;61985;51.070;14.064;2023-04-03T17:15:22;99811.38;;;1.66
73685;BMP280;61985;51.070;14.064;2023-04-03T17:17:50;99816.34;;;1.67
73685;BMP280;61985;51.070;14.064;2023-04-03T17:20:20;99813.69;;;1.67
73685;BMP280;61985;51.070;14.064;2023-04-03T17:22:46;99816.59;;;1.74
73685;BMP280;61985;51.070;14.064;2023-04-03T17:25:12;99817.69;;;1.73
73685;BMP280;61985;51.070;14.064;2023-04-03T17:27:38;99813.47;;;1.60
73685;BMP280;61985;51.070;14.064;2023-04-03T17:30:04;99816.47;;;1.58
73685;BMP280;61985;51.070;14.064;2023-04-03T17:32:30;99813.88;;;1.50
73685;BMP280;61985;51.070;14.064;2023-04-03T17:34:56;99815.63;;;1.45
73685;BMP280;61985;51.070;14.064;2023-04-03T17:37:22;99821.81;;;1.37
73685;BMP280;61985;51.070;14.064;2023-04-03T17:39:48;99822.91;;;1.36
73685;BMP280;61985;51.070;14.064;2023-04-03T17:42:13;99819.00;;;1.21
73685;BMP280;61985;51.070;14.064;2023-04-03T17:44:39;99819.34;;;1.20
73685;BMP280;61985;51.070;14.064;2023-04-03T17:47:04;99823.19;;;1.10
73685;BMP280;61985;51.070;14.064;2023-04-03T17:49:30;99825.69;;;1.06
73685;BMP280;61985;51.070;14.064;2023-04-03T17:51:56;99824.78;;;1.02
73685;BMP280;61985;51.070;14.064;2023-04-03T17:56:57;99834.06;;;0.96
73685;BMP280;61985;51.070;14.064;2023-04-03T17:59:24;99827.72;;;0.88
73685;BMP280;61985;51.070;14.064;2023-04-03T18:01:50;99828.59;;;0.93
73685;BMP280;61985;51.070;14.064;2023-04-03T18:04:16;99824.41;;;0.92
73685;BMP280;61985;51.070;14.064;2023-04-03T18:06:45;99818.91;;;0.97
73685;BMP280;61985;51.070;14.064;2023-04-03T18:09:25;99826.53;;;0.98
73685;BMP280;61985;51.070;14.064;2023-04-03T18:11:51;99828.22;;;1.03
73685;BMP280;61985;51.070;14.064;2023-04-03T18:14:22;99820.13;;;0.99
73685;BMP280;61985;51.070;14.064;2023-04-03T18:16:48;99818.31;;;0.91
73685;BMP280;61985;51.070;14.064;2023-04-03T18:19:17;99833.25;;;0.96
73685;BMP280;61985;51.070;14.064;2023-04-03T18:21:43;99832.81;;;0.94
73685;BMP280;61985;51.070;14.064;2023-04-03T18:24:12;99827.56;;;0.85
73685;BMP280;61985;51.070;14.064;2023-04-03T18:26:40;99824.34;;;0.79
73685;BMP280;61985;51.070;14.064;2023-04-03T18:29:08;99827.69;;;0.67
73685;BMP280;61985;51.070;14.064;2023-04-03T18:31:36;99831.75;;;0.65
73685;BMP280;61985;51.070;14.064;2023-04-03T18:34:01;99826.34;;;0.52
73685;BMP280;61985;51.070;14.064;2023-04-03T18:36:27;99827.91;;;0.53
73685;BMP280;61985;51.070;14.064;2023-04-03T18:38:54;99821.53;;;0.54
73685;BMP280;61985;51.070;14.064;2023-04-03T18:41:23;99822.66;;;0.45
73685;BMP280;61985;51.070;14.064;2023-04-03T18:43:51;99827.91;;;0.53
73685;BMP280;61985;51.070;14.064;2023-04-03T18:46:17;99836.91;;;0.61
73685;BMP280;61985;51.070;14.064;2023-04-03T18:48:43;99828.97;;;0.61
73685;BMP280;61985;51.070;14.064;2023-04-03T18:51:11;99828.69;;;0.54
73685;BMP280;61985;51.070;14.064;2023-04-03T18:53:37;99822.09;;;0.60
73685;BMP280;61985;51.070;14.064;2023-04-03T18:56:05;99826.75;;;0.63
73685;BMP280;61985;51.070;14.064;2023-04-03T18:58:32;99821.59;;;0.67
73685;BMP280;61985;51.070;14.064;2023-04-03T19:00:58;99817.06;;;0.67
73685;BMP280;61985;51.070;14.064;2023-04-03T19:03:30;99818.94;;;0.67
73685;BMP280;61985;51.070;14.064;2023-04-03T19:05:56;99819.84;;;0.71
73685;BMP280;61985;51.070;14.064;2023-04-03T19:10:58;99812.69;;;0.71
73685;BMP280;61985;51.070;14.064;2023-04-03T19:13:26;99815.78;;;0.74
73685;BMP280;61985;51.070;14.064;2023-04-03T19:15:52;99824.97;;;0.76
73685;BMP280;61985;51.070;14.064;2023-04-03T19:18:23;99825.09;;;0.80
73685;BMP280;61985;51.070;14.064;2023-04-03T19:20:49;99817.47;;;0.78
73685;BMP280;61985;51.070;14.064;2023-04-03T19:23:15;99819.78;;;0.80
73685;BMP280;61985;51.070;14.064;2023-04-03T19:25:41;99825.09;;;0.80
73685;BMP280;61985;51.070;14.064;2023-04-03T19:28:07;99827.44;;;0.81
73685;BMP280;61985;51.070;14.064;2023-04-03T19:30:33;99819.91;;;0.83
73685;BMP280;61985;51.070;14.064;2023-04-03T19:32:59;99818.06;;;0.84
73685;BMP280;61985;51.070;14.064;2023-04-03T19:37:59;99819.88;;;0.92
73685;BMP280;61985;51.070;14.064;2023-04-03T19:40:27;99812.56;;;0.89
73685;BMP280;61985;51.070;14.064;2023-04-03T19:42:53;99818.31;;;0.91
73685;BMP280;61985;51.070;14.064;2023-04-03T19:45:19;99817.34;;;0.96
73685;BMP280;61985;51.070;14.064;2023-04-03T19:47:47;99823.56;;;1.00
73685;BMP280;61985;51.070;14.064;2023-04-03T19:50:13;99815.59;;;1.00
73685;BMP280;61985;51.070;14.064;2023-04-03T19:52:38;99816.38;;;1.00
73685;BMP280;61985;51.070;14.064;2023-04-03T19:55:04;99821.34;;;1.02
73685;BMP280;61985;51.070;14.064;2023-04-03T19:57:32;99818.13;;;0.96
73685;BMP280;61985;51.070;14.064;2023-04-03T20:00:07;99821.22;;;0.98
73685;BMP280;61985;51.070;14.064;2023-04-03T20:02:33;99820.91;;;1.00
